createdAt,value
2023-01-22T00:00:18.490Z,22.19
2023-01-22T00:02:19.970Z,22.20
2023-01-22T00:04:21.310Z,22.22
2023-01-22T00:06:23.652Z,22.25
2023-01-22T00:08:25.042Z,22.34
2023-01-22T00:10:26.387Z,22.33
2023-01-22T00:12:27.683Z,22.40
2023-01-22T00:14:29.078Z,22.50
2023-01-22T00:16:30.548Z,22.55
2023-01-22T00:18:32.098Z,22.50
2023-01-22T00:20:33.489Z,22.61
2023-01-22T00:22:34.919Z,22.58
2023-01-22T00:24:36.442Z,22.46
2023-01-22T00:26:37.814Z,22.37
2023-01-22T00:28:39.234Z,22.46
2023-01-22T00:30:40.554Z,22.43
2023-01-22T00:32:41.882Z,21.36
2023-01-22T00:34:45.311Z,19.36
2023-01-22T00:36:46.603Z,17.96
2023-01-22T00:38:47.942Z,18.06
2023-01-22T00:40:49.242Z,19.55
2023-01-22T00:42:50.534Z,20.36
2023-01-22T00:44:51.936Z,20.51
2023-01-22T00:46:53.246Z,20.83
2023-01-22T00:48:54.554Z,21.01
2023-01-22T00:50:55.929Z,21.14
2023-01-22T00:52:57.800Z,21.28
2023-01-22T00:54:59.083Z,21.39
2023-01-22T00:57:00.384Z,21.47
2023-01-22T00:59:02.219Z,21.52
2023-01-22T01:01:03.614Z,21.57
2023-01-22T01:03:23.337Z,21.64
2023-01-22T01:05:24.662Z,21.65
2023-01-22T01:07:25.986Z,21.73
2023-01-22T01:09:27.374Z,21.73
2023-01-22T01:11:29.731Z,21.77
2023-01-22T01:13:31.067Z,21.75
2023-01-22T01:15:32.498Z,21.77
2023-01-22T01:17:33.798Z,21.76
2023-01-22T01:19:35.090Z,21.78
2023-01-22T01:21:36.399Z,21.76
2023-01-22T01:23:37.736Z,21.74
2023-01-22T01:25:39.031Z,21.69
2023-01-22T01:27:40.320Z,21.65
2023-01-22T01:29:41.614Z,21.60
2023-01-22T01:31:42.958Z,21.50
2023-01-22T01:33:44.489Z,21.45
2023-01-22T01:35:45.806Z,21.42
2023-01-22T01:37:47.102Z,21.36
2023-01-22T01:39:52.441Z,21.33
2023-01-22T01:41:53.752Z,21.30
2023-01-22T01:43:55.063Z,21.25
2023-01-22T01:45:56.441Z,21.21
2023-01-22T01:47:57.809Z,20.25
2023-01-22T01:49:59.138Z,21.08
2023-01-22T01:52:00.495Z,21.04
2023-01-22T01:54:01.847Z,21.01
2023-01-22T01:56:03.199Z,20.98
2023-01-22T01:58:04.498Z,20.96
2023-01-22T02:00:10.468Z,20.94
2023-01-22T02:02:11.842Z,20.91
2023-01-22T02:04:13.174Z,20.89
2023-01-22T02:06:14.491Z,20.86
2023-01-22T02:08:15.781Z,20.84
2023-01-22T02:10:17.329Z,20.83
2023-01-22T02:12:18.797Z,20.82
2023-01-22T02:14:20.121Z,20.81
2023-01-22T02:16:21.472Z,20.80
2023-01-22T02:18:22.818Z,20.81
2023-01-22T02:20:24.150Z,20.81
2023-01-22T02:22:25.582Z,20.83
2023-01-22T02:24:26.895Z,20.86
2023-01-22T02:26:28.187Z,20.94
2023-01-22T02:28:29.541Z,21.02
2023-01-22T02:30:30.905Z,21.08
2023-01-22T02:32:32.212Z,21.14
2023-01-22T02:34:33.530Z,21.19
2023-01-22T02:36:34.853Z,21.28
2023-01-22T02:38:36.195Z,21.34
2023-01-22T02:40:49.204Z,21.41
2023-01-22T02:42:50.745Z,21.45
2023-01-22T02:44:53.066Z,21.45
2023-01-22T02:46:54.434Z,21.47
2023-01-22T02:48:55.725Z,21.47
2023-01-22T02:50:57.123Z,21.47
2023-01-22T02:52:58.466Z,21.43
2023-01-22T02:54:59.761Z,21.42
2023-01-22T02:57:01.159Z,21.37
2023-01-22T02:59:02.556Z,21.35
2023-01-22T03:01:03.904Z,21.31
2023-01-22T03:03:07.815Z,21.32
2023-01-22T03:05:09.186Z,21.24
2023-01-22T03:07:10.537Z,21.18
2023-01-22T03:09:11.839Z,21.17
2023-01-22T03:11:13.157Z,21.18
2023-01-22T03:13:33.136Z,21.16
2023-01-22T03:15:53.072Z,21.10
2023-01-22T03:18:13.065Z,21.07
2023-01-22T03:20:32.983Z,21.02
2023-01-22T03:22:34.377Z,20.98
2023-01-22T03:24:35.677Z,20.98
2023-01-22T03:26:37.046Z,20.95
2023-01-22T03:28:38.374Z,20.92
2023-01-22T03:30:39.664Z,20.92
2023-01-22T03:32:40.999Z,20.88
2023-01-22T03:34:42.287Z,20.93
2023-01-22T03:36:43.610Z,20.94
2023-01-22T03:38:45.500Z,20.96
2023-01-22T03:40:46.834Z,20.95
2023-01-22T03:42:48.173Z,20.94
2023-01-22T03:44:49.466Z,20.96
2023-01-22T03:46:50.819Z,21.01
2023-01-22T03:48:52.236Z,21.06
2023-01-22T03:50:53.669Z,21.11
2023-01-22T03:52:57.692Z,21.18
2023-01-22T03:54:58.991Z,21.22
2023-01-22T03:57:00.345Z,21.27
2023-01-22T03:59:02.193Z,21.36
2023-01-22T04:01:03.527Z,21.43
2023-01-22T04:03:04.864Z,21.44
2023-01-22T04:05:06.434Z,21.45
2023-01-22T04:07:07.729Z,21.46
2023-01-22T04:09:09.062Z,21.43
2023-01-22T04:11:10.398Z,21.42
2023-01-22T04:13:11.734Z,21.41
2023-01-22T04:15:13.047Z,21.44
2023-01-22T04:17:14.337Z,21.43
2023-01-22T04:19:15.711Z,21.38
2023-01-22T04:21:17.006Z,21.34
2023-01-22T04:23:18.450Z,21.32
2023-01-22T04:25:19.835Z,21.27
2023-01-22T04:27:21.130Z,21.21
2023-01-22T04:29:22.442Z,21.17
2023-01-22T04:31:23.956Z,21.14
2023-01-22T04:33:25.356Z,21.12
2023-01-22T04:35:26.654Z,21.13
2023-01-22T04:37:28.003Z,21.11
2023-01-22T04:39:29.363Z,21.10
2023-01-22T04:41:30.779Z,21.07
2023-01-22T04:43:32.120Z,21.06
2023-01-22T04:45:33.415Z,21.04
2023-01-22T04:47:34.861Z,21.01
2023-01-22T04:49:36.158Z,21.00
2023-01-22T04:51:37.469Z,20.98
2023-01-22T04:53:38.813Z,20.97
2023-01-22T04:55:41.993Z,20.98
2023-01-22T04:57:43.339Z,20.98
2023-01-22T04:59:44.693Z,20.96
2023-01-22T05:01:46.051Z,20.98
2023-01-22T05:03:47.386Z,20.98
2023-01-22T05:05:48.721Z,21.03
2023-01-22T05:07:50.048Z,21.08
2023-01-22T05:09:51.412Z,21.14
2023-01-22T05:11:52.761Z,21.18
2023-01-22T05:13:54.440Z,21.25
2023-01-22T05:15:56.269Z,21.30
2023-01-22T05:17:57.633Z,21.31
2023-01-22T05:19:58.963Z,21.35
2023-01-22T05:22:00.322Z,21.42
2023-01-22T05:24:02.206Z,21.46
2023-01-22T05:26:03.531Z,21.49
2023-01-22T05:28:04.850Z,21.46
2023-01-22T05:30:06.329Z,21.44
2023-01-22T05:32:07.624Z,21.46
2023-01-22T05:34:08.926Z,21.44
2023-01-22T05:36:10.278Z,21.42
2023-01-22T05:38:11.578Z,21.39
2023-01-22T05:40:12.882Z,21.35
2023-01-22T05:42:14.919Z,21.31
2023-01-22T05:44:16.214Z,21.29
2023-01-22T05:46:17.628Z,21.25
2023-01-22T05:48:18.978Z,21.24
2023-01-22T05:50:20.477Z,21.21
2023-01-22T05:52:21.951Z,21.17
2023-01-22T05:54:23.257Z,21.14
2023-01-22T05:56:24.574Z,21.14
2023-01-22T05:58:26.041Z,21.08
2023-01-22T06:00:27.330Z,21.04
2023-01-22T06:02:28.702Z,21.09
2023-01-22T06:04:30.099Z,21.11
2023-01-22T06:06:31.435Z,21.12
2023-01-22T06:08:34.300Z,21.09
2023-01-22T06:10:35.693Z,21.08
2023-01-22T06:12:37.034Z,21.06
2023-01-22T06:14:38.368Z,21.06
2023-01-22T06:16:39.682Z,21.06
2023-01-22T06:18:41.038Z,21.06
2023-01-22T06:20:42.376Z,21.05
2023-01-22T06:22:43.689Z,21.07
2023-01-22T06:24:45.018Z,21.05
2023-01-22T06:26:46.317Z,21.06
2023-01-22T06:28:47.610Z,21.11
2023-01-22T06:30:49.043Z,21.17
2023-01-22T06:32:50.452Z,21.19
2023-01-22T06:34:51.782Z,21.22
2023-01-22T06:36:53.082Z,21.27
2023-01-22T06:38:54.390Z,21.32
2023-01-22T06:40:55.782Z,21.39
2023-01-22T06:42:57.814Z,21.42
2023-01-22T06:44:59.098Z,21.46
2023-01-22T06:47:00.431Z,21.47
2023-01-22T06:49:02.658Z,21.43
2023-01-22T06:51:04.013Z,21.40
2023-01-22T06:53:05.343Z,21.35
2023-01-22T06:55:06.640Z,21.32
2023-01-22T06:57:07.932Z,21.25
2023-01-22T06:59:09.266Z,21.15
2023-01-22T07:01:10.565Z,21.09
2023-01-22T07:03:11.903Z,21.00
2023-01-22T07:05:13.199Z,20.96
2023-01-22T07:07:17.330Z,20.93
2023-01-22T07:09:18.678Z,20.89
2023-01-22T07:11:19.993Z,20.86
2023-01-22T07:13:21.273Z,20.87
2023-01-22T07:15:22.609Z,20.85
2023-01-22T07:17:23.940Z,20.85
2023-01-22T07:19:25.293Z,20.83
2023-01-22T07:21:27.235Z,20.81
2023-01-22T07:23:28.570Z,20.80
2023-01-22T07:25:29.874Z,20.79
2023-01-22T07:27:32.548Z,20.77
2023-01-22T07:29:33.919Z,20.78
2023-01-22T07:31:35.305Z,20.85
2023-01-22T07:33:36.659Z,20.87
2023-01-22T07:35:40.959Z,20.88
2023-01-22T07:37:42.291Z,20.88
2023-01-22T07:39:43.641Z,20.90
2023-01-22T07:41:44.997Z,20.95
2023-01-22T07:43:46.408Z,21.01
2023-01-22T07:45:47.729Z,21.03
2023-01-22T07:47:49.129Z,21.10
2023-01-22T07:49:50.478Z,21.16
2023-01-22T07:51:51.869Z,21.20
2023-01-22T07:53:53.239Z,21.28
2023-01-22T07:55:54.570Z,21.37
2023-01-22T07:57:55.910Z,21.40
2023-01-22T07:59:57.210Z,21.42
2023-01-22T08:01:58.570Z,21.42
2023-01-22T08:04:02.968Z,21.46
2023-01-22T08:06:04.269Z,21.45
2023-01-22T08:08:05.610Z,21.43
2023-01-22T08:10:06.956Z,21.46
2023-01-22T08:12:08.246Z,21.44
2023-01-22T08:14:09.542Z,21.40
2023-01-22T08:16:10.936Z,21.37
2023-01-22T08:18:12.347Z,21.40
2023-01-22T08:20:13.645Z,21.42
2023-01-22T08:22:14.986Z,21.38
2023-01-22T08:24:16.288Z,21.32
2023-01-22T08:26:17.604Z,21.30
2023-01-22T08:28:18.936Z,21.25
2023-01-22T08:30:20.679Z,21.20
2023-01-22T08:32:22.366Z,21.18
2023-01-22T08:34:23.723Z,21.14
2023-01-22T08:36:25.123Z,21.10
2023-01-22T08:38:26.501Z,21.06
2023-01-22T08:40:27.825Z,21.04
2023-01-22T08:42:29.139Z,20.83
2023-01-22T08:44:30.463Z,18.34
2023-01-22T08:46:31.800Z,17.46
2023-01-22T08:48:33.092Z,16.29
2023-01-22T08:50:34.427Z,17.44
2023-01-22T08:52:41.591Z,18.99
2023-01-22T08:54:42.912Z,19.64
2023-01-22T08:56:44.251Z,20.04
2023-01-22T08:58:45.545Z,20.34
2023-01-22T09:00:46.862Z,20.59
2023-01-22T09:02:53.979Z,20.76
2023-01-22T09:04:55.294Z,20.88
2023-01-22T09:06:56.671Z,20.99
2023-01-22T09:08:58.981Z,21.02
2023-01-22T09:11:00.477Z,21.10
2023-01-22T09:13:01.775Z,21.16
2023-01-22T09:15:03.149Z,21.20
2023-01-22T09:17:04.443Z,21.24
2023-01-22T09:19:08.766Z,21.30
2023-01-22T09:21:10.097Z,21.33
2023-01-22T09:23:11.422Z,21.36
2023-01-22T09:25:12.764Z,21.36
2023-01-22T09:27:14.213Z,21.41
2023-01-22T09:29:15.523Z,21.41
2023-01-22T09:31:19.737Z,21.42
2023-01-22T09:33:21.115Z,21.45
2023-01-22T09:35:22.456Z,21.46
2023-01-22T09:37:25.267Z,21.47
2023-01-22T09:39:26.567Z,21.47
2023-01-22T09:41:27.895Z,21.44
2023-01-22T09:43:29.264Z,21.44
2023-01-22T09:45:30.674Z,21.42
2023-01-22T09:47:32.017Z,21.35
2023-01-22T09:49:33.370Z,21.26
2023-01-22T09:51:34.666Z,21.19
2023-01-22T09:53:36.006Z,21.13
2023-01-22T09:55:39.986Z,21.04
2023-01-22T09:57:41.295Z,20.97
2023-01-22T09:59:42.589Z,20.93
2023-01-22T10:01:43.981Z,20.86
2023-01-22T10:03:45.353Z,20.84
2023-01-22T10:05:46.643Z,20.79
2023-01-22T10:07:47.974Z,20.74
2023-01-22T10:09:49.261Z,20.68
2023-01-22T10:11:50.853Z,20.65
2023-01-22T10:13:52.795Z,20.62
2023-01-22T10:15:54.085Z,20.56
2023-01-22T10:17:55.429Z,20.53
2023-01-22T10:19:56.789Z,20.50
2023-01-22T10:21:58.091Z,20.48
2023-01-22T10:23:59.424Z,20.47
2023-01-22T10:26:00.771Z,20.47
2023-01-22T10:28:04.194Z,20.46
2023-01-22T10:30:05.537Z,20.47
2023-01-22T10:32:07.032Z,20.51
2023-01-22T10:34:08.371Z,20.56
2023-01-22T10:36:09.700Z,20.65
2023-01-22T10:38:10.992Z,20.75
2023-01-22T10:40:12.285Z,20.84
2023-01-22T10:42:13.618Z,20.87
2023-01-22T10:44:14.907Z,20.82
2023-01-22T10:46:16.283Z,20.74
2023-01-22T10:48:17.631Z,20.66
2023-01-22T10:50:19.812Z,20.56
2023-01-22T10:52:21.319Z,20.49
2023-01-22T10:54:22.693Z,20.47
2023-01-22T10:56:24.031Z,20.50
2023-01-22T10:58:25.502Z,20.55
2023-01-22T11:00:26.923Z,20.60
2023-01-22T11:02:28.346Z,20.68
2023-01-22T11:04:29.722Z,20.72
2023-01-22T11:06:31.060Z,20.80
2023-01-22T11:08:32.435Z,20.84
2023-01-22T11:10:33.762Z,20.92
2023-01-22T11:12:35.059Z,20.95
2023-01-22T11:14:36.394Z,20.96
2023-01-22T11:16:37.725Z,20.92
2023-01-22T11:18:39.082Z,20.96
2023-01-22T11:20:40.405Z,20.97
2023-01-22T11:22:41.705Z,20.98
2023-01-22T11:24:47.220Z,20.95
2023-01-22T11:26:48.649Z,21.01
2023-01-22T11:28:49.985Z,20.98
2023-01-22T11:30:51.338Z,20.93
2023-01-22T11:32:52.812Z,20.91
2023-01-22T11:34:54.227Z,20.87
2023-01-22T11:36:55.571Z,20.86
2023-01-22T11:38:59.651Z,20.83
2023-01-22T11:41:01.023Z,20.83
2023-01-22T11:43:02.354Z,20.78
2023-01-22T11:45:03.928Z,20.74
2023-01-22T11:47:05.266Z,20.71
2023-01-22T11:49:06.609Z,20.68
2023-01-22T11:51:07.959Z,20.65
2023-01-22T11:53:09.316Z,20.64
2023-01-22T11:55:10.659Z,20.62
2023-01-22T11:57:11.990Z,20.61
2023-01-22T11:59:13.294Z,20.58
2023-01-22T12:01:14.639Z,20.56
2023-01-22T12:03:16.000Z,20.52
2023-01-22T12:05:17.341Z,20.53
2023-01-22T12:07:18.664Z,20.42
2023-01-22T12:09:22.650Z,20.42
2023-01-22T12:11:23.957Z,20.44
2023-01-22T12:13:26.770Z,20.47
2023-01-22T12:15:28.146Z,19.56
2023-01-22T12:17:29.516Z,20.32
2023-01-22T12:19:30.877Z,20.44
2023-01-22T12:21:32.214Z,20.59
2023-01-22T12:23:33.889Z,20.67
2023-01-22T12:25:35.236Z,20.76
2023-01-22T12:27:36.581Z,20.81
2023-01-22T12:29:40.672Z,20.90
2023-01-22T12:31:42.044Z,20.92
2023-01-22T12:33:47.312Z,20.96
2023-01-22T12:35:48.615Z,20.98
2023-01-22T12:37:49.951Z,21.01
2023-01-22T12:39:51.567Z,21.04
2023-01-22T12:41:55.890Z,21.04
2023-01-22T12:43:57.284Z,21.00
2023-01-22T12:45:59.061Z,21.01
2023-01-22T12:48:00.402Z,20.98
2023-01-22T12:50:04.979Z,20.96
2023-01-22T12:52:06.380Z,20.93
2023-01-22T12:54:07.816Z,20.90
2023-01-22T12:56:12.123Z,20.87
2023-01-22T12:58:13.983Z,20.81
2023-01-22T13:00:19.304Z,20.79
2023-01-22T13:02:20.914Z,20.73
2023-01-22T13:04:22.377Z,20.72
2023-01-22T13:06:25.990Z,20.68
2023-01-22T13:08:27.354Z,20.65
2023-01-22T13:10:31.555Z,20.62
2023-01-22T13:12:32.851Z,20.60
2023-01-22T13:14:34.367Z,20.57
2023-01-22T13:16:41.414Z,20.44
2023-01-22T13:18:43.267Z,20.65
2023-01-22T13:20:44.557Z,21.07
2023-01-22T13:22:45.922Z,21.59
2023-01-22T13:24:49.950Z,21.82
2023-01-22T13:26:54.137Z,22.11
2023-01-22T13:28:55.467Z,22.00
2023-01-22T13:30:57.082Z,21.61
2023-01-22T13:32:58.464Z,21.48
2023-01-22T13:34:59.768Z,21.48
2023-01-22T13:37:01.161Z,21.54
2023-01-22T13:39:02.553Z,21.62
2023-01-22T13:41:03.848Z,21.65
2023-01-22T13:43:05.180Z,21.72
2023-01-22T13:45:06.524Z,22.66
2023-01-22T13:47:07.889Z,21.24
2023-01-22T13:49:09.229Z,21.68
2023-01-22T13:51:11.839Z,21.52
2023-01-22T13:53:13.282Z,21.47
2023-01-22T13:55:16.511Z,21.45
2023-01-22T13:57:17.863Z,21.42
2023-01-22T13:59:19.218Z,21.42
2023-01-22T14:01:20.559Z,21.41
2023-01-22T14:03:21.891Z,19.66
2023-01-22T14:05:23.216Z,21.39
2023-01-22T14:07:24.798Z,21.39
2023-01-22T14:09:26.541Z,21.35
2023-01-22T14:11:27.879Z,21.33
2023-01-22T14:13:29.175Z,21.32
2023-01-22T14:15:30.470Z,21.31
2023-01-22T14:17:33.845Z,21.28
2023-01-22T14:19:35.176Z,21.30
2023-01-22T14:21:37.502Z,21.31
2023-01-22T14:23:38.811Z,21.28
2023-01-22T14:25:40.145Z,21.25
2023-01-22T14:27:41.550Z,21.26
2023-01-22T14:29:42.859Z,21.24
2023-01-22T14:31:44.246Z,21.22
2023-01-22T14:33:45.614Z,21.22
2023-01-22T14:35:46.946Z,21.21
2023-01-22T14:37:48.279Z,21.20
2023-01-22T14:39:49.670Z,21.19
2023-01-22T14:41:51.407Z,21.17
2023-01-22T14:43:56.842Z,21.12
2023-01-22T14:45:58.225Z,21.08
2023-01-22T14:48:00.695Z,21.05
2023-01-22T14:50:02.021Z,20.98
2023-01-22T14:52:03.320Z,20.91
2023-01-22T14:54:04.666Z,20.85
2023-01-22T14:56:06.037Z,20.83
2023-01-22T14:58:07.595Z,20.88
2023-01-22T15:00:08.895Z,21.09
2023-01-22T15:02:10.286Z,21.06
2023-01-22T15:04:11.647Z,21.01
2023-01-22T15:06:12.983Z,21.00
2023-01-22T15:08:14.314Z,21.04
2023-01-22T15:10:15.903Z,21.07
2023-01-22T15:12:17.307Z,21.05
2023-01-22T15:14:18.634Z,21.07
2023-01-22T15:16:19.994Z,21.11
2023-01-22T15:18:21.337Z,21.12
2023-01-22T15:20:22.702Z,21.13
2023-01-22T15:22:24.096Z,21.10
2023-01-22T15:24:28.193Z,21.11
2023-01-22T15:26:31.904Z,21.15
2023-01-22T15:28:33.204Z,21.17
2023-01-22T15:30:34.554Z,21.16
2023-01-22T15:32:35.932Z,21.15
2023-01-22T15:34:37.254Z,21.14
2023-01-22T15:36:41.746Z,21.14
2023-01-22T15:38:43.033Z,21.12
2023-01-22T15:40:47.396Z,21.17
2023-01-22T15:42:49.140Z,21.22
2023-01-22T15:44:50.474Z,20.98
2023-01-22T15:46:51.772Z,20.95
2023-01-22T15:48:54.001Z,21.26
2023-01-22T15:50:55.348Z,21.38
2023-01-22T15:53:00.230Z,21.59
2023-01-22T15:55:04.270Z,21.67
2023-01-22T15:57:08.315Z,21.70
2023-01-22T15:59:09.666Z,20.92
2023-01-22T16:01:11.982Z,22.13
2023-01-22T16:03:13.504Z,21.89
2023-01-22T16:05:14.948Z,21.83
2023-01-22T16:07:16.379Z,21.79
2023-01-22T16:09:17.675Z,21.81
2023-01-22T16:11:19.249Z,22.05
2023-01-22T16:13:20.592Z,21.89
2023-01-22T16:15:21.890Z,21.81
2023-01-22T16:17:23.222Z,21.78
2023-01-22T16:19:24.560Z,21.80
2023-01-22T16:21:25.950Z,21.78
2023-01-22T16:23:27.251Z,22.04
2023-01-22T16:25:28.561Z,21.95
2023-01-22T16:27:29.937Z,22.28
2023-01-22T16:29:31.278Z,22.33
2023-01-22T16:31:32.676Z,22.27
2023-01-22T16:33:34.138Z,22.22
2023-01-22T16:35:35.447Z,22.22
2023-01-22T16:37:37.009Z,22.19
2023-01-22T16:39:38.359Z,21.92
2023-01-22T16:41:39.696Z,21.45
2023-01-22T16:43:40.992Z,21.12
2023-01-22T16:45:42.298Z,21.08
2023-01-22T16:47:43.686Z,21.26
2023-01-22T16:49:44.987Z,21.72
2023-01-22T16:51:46.445Z,21.99
2023-01-22T16:53:47.752Z,22.15
2023-01-22T16:55:49.097Z,21.39
2023-01-22T16:57:50.655Z,22.34
2023-01-22T16:59:52.033Z,22.39
2023-01-22T17:01:53.343Z,22.55
2023-01-22T17:03:54.650Z,22.46
2023-01-22T17:05:56.015Z,22.33
2023-01-22T17:07:57.340Z,22.34
2023-01-22T17:09:58.775Z,22.23
2023-01-22T17:12:00.128Z,22.17
2023-01-22T17:14:01.460Z,22.10
2023-01-22T17:16:02.866Z,22.16
2023-01-22T17:18:09.988Z,22.20
2023-01-22T17:20:11.283Z,22.08
2023-01-22T17:22:13.351Z,22.08
2023-01-22T17:24:14.702Z,22.11
2023-01-22T17:26:16.039Z,22.16
2023-01-22T17:28:22.097Z,22.13
2023-01-22T17:30:23.604Z,22.12
2023-01-22T17:32:26.457Z,22.11
2023-01-22T17:34:27.775Z,22.13
2023-01-22T17:36:29.104Z,22.15
2023-01-22T17:38:32.722Z,22.17
2023-01-22T17:40:35.081Z,22.26
2023-01-22T17:42:36.450Z,22.27
2023-01-22T17:44:38.698Z,22.34
2023-01-22T17:46:40.937Z,22.27
2023-01-22T17:48:43.267Z,21.78
2023-01-22T17:50:44.615Z,21.70
2023-01-22T17:52:45.917Z,21.88
2023-01-22T17:54:50.222Z,21.94
2023-01-22T17:56:55.976Z,22.10
2023-01-22T17:59:00.035Z,22.16
2023-01-22T18:01:05.282Z,22.19
2023-01-22T18:03:06.628Z,22.28
2023-01-22T18:05:09.485Z,22.26
2023-01-22T18:07:12.691Z,22.32
2023-01-22T18:09:16.759Z,22.34
2023-01-22T18:11:18.097Z,22.28
2023-01-22T18:13:22.301Z,22.37
2023-01-22T18:15:23.591Z,22.38
2023-01-22T18:17:27.832Z,22.43
2023-01-22T18:19:29.206Z,22.41
2023-01-22T18:21:30.634Z,22.22
2023-01-22T18:23:31.929Z,21.88
2023-01-22T18:25:33.222Z,22.08
2023-01-22T18:27:34.522Z,22.29
2023-01-22T18:29:35.839Z,22.32
2023-01-22T18:31:38.050Z,22.47
2023-01-22T18:33:39.480Z,22.43
2023-01-22T18:35:40.780Z,22.33
2023-01-22T18:37:51.378Z,22.32
2023-01-22T18:39:59.180Z,22.28
2023-01-22T18:42:00.570Z,22.25
2023-01-22T18:44:11.331Z,22.26
2023-01-22T18:46:12.639Z,22.27
2023-01-22T18:48:13.954Z,22.29
2023-01-22T18:50:19.774Z,22.26
2023-01-22T18:52:21.119Z,22.35
2023-01-22T18:54:22.477Z,22.32
2023-01-22T18:56:25.538Z,22.32
2023-01-22T18:58:45.992Z,22.33
2023-01-22T19:00:47.304Z,22.33
2023-01-22T19:02:48.619Z,22.31
2023-01-22T19:04:49.925Z,22.28
2023-01-22T19:06:54.633Z,22.22
2023-01-22T19:08:56.104Z,22.25
2023-01-22T19:11:00.290Z,22.20
2023-01-22T19:13:01.615Z,22.27
2023-01-22T19:15:05.963Z,21.81
2023-01-22T19:17:10.395Z,21.70
2023-01-22T19:19:13.361Z,21.66
2023-01-22T19:21:14.707Z,21.92
2023-01-22T19:23:16.017Z,22.06
2023-01-22T19:25:17.538Z,22.23
2023-01-22T19:27:21.358Z,22.24
2023-01-22T19:29:25.731Z,22.33
2023-01-22T19:31:27.154Z,22.39
2023-01-22T19:33:28.962Z,22.44
2023-01-22T19:35:33.079Z,22.57
2023-01-22T19:37:34.453Z,22.48
2023-01-22T19:39:36.232Z,22.66
2023-01-22T19:41:40.824Z,22.79
2023-01-22T19:43:42.539Z,22.62
2023-01-22T19:45:43.977Z,22.62
2023-01-22T19:47:45.321Z,22.66
2023-01-22T19:49:46.611Z,22.55
2023-01-22T19:51:47.968Z,22.46
2023-01-22T19:53:49.289Z,22.38
2023-01-22T19:55:50.618Z,22.40
2023-01-22T19:57:51.999Z,22.44
2023-01-22T19:59:58.372Z,22.33
2023-01-22T20:01:59.849Z,22.43
2023-01-22T20:04:02.250Z,22.55
2023-01-22T20:06:03.571Z,22.46
2023-01-22T20:08:07.664Z,22.50
2023-01-22T20:10:09.004Z,22.48
2023-01-22T20:12:11.285Z,22.37
2023-01-22T20:14:15.442Z,22.37
2023-01-22T20:16:16.892Z,22.23
2023-01-22T20:18:18.427Z,22.12
2023-01-22T20:20:20.667Z,22.16
2023-01-22T20:22:22.013Z,22.30
2023-01-22T20:24:23.358Z,22.15
2023-01-22T20:26:24.701Z,22.20
2023-01-22T20:28:25.998Z,22.16
2023-01-22T20:30:27.364Z,22.17
2023-01-22T20:32:30.276Z,22.17
2023-01-22T20:34:31.605Z,22.22
2023-01-22T20:36:33.191Z,22.18
2023-01-22T20:38:37.744Z,22.18
2023-01-22T20:40:39.225Z,22.14
2023-01-22T20:42:40.568Z,21.83
2023-01-22T20:44:41.870Z,21.57
2023-01-22T20:46:44.674Z,21.45
2023-01-22T20:48:46.022Z,21.42
2023-01-22T20:50:47.402Z,21.42
2023-01-22T20:52:48.747Z,21.44
2023-01-22T20:55:00.837Z,21.47
2023-01-22T20:57:02.981Z,21.51
2023-01-22T20:59:04.382Z,21.78
2023-01-22T21:01:05.915Z,22.15
2023-01-22T21:03:07.278Z,22.38
2023-01-22T21:05:08.592Z,22.49
2023-01-22T21:07:10.508Z,22.65
2023-01-22T21:09:11.808Z,22.62
2023-01-22T21:11:13.148Z,22.70
2023-01-22T21:13:18.061Z,22.68
2023-01-22T21:15:19.387Z,22.60
2023-01-22T21:17:23.505Z,22.59
2023-01-22T21:19:26.083Z,22.60
2023-01-22T21:21:27.421Z,22.63
2023-01-22T21:23:28.950Z,22.67
2023-01-22T21:25:30.332Z,22.59
2023-01-22T21:27:31.669Z,21.58
2023-01-22T21:29:33.000Z,18.85
2023-01-22T21:31:34.322Z,17.61
2023-01-22T21:33:35.670Z,19.46
2023-01-22T21:35:37.000Z,20.58
2023-01-22T21:37:38.362Z,21.18
2023-01-22T21:39:44.940Z,21.50
2023-01-22T21:41:46.339Z,21.79
2023-01-22T21:44:06.364Z,21.89
2023-01-22T21:46:22.873Z,21.98
2023-01-22T21:48:24.263Z,22.34
2023-01-22T21:50:25.595Z,19.88
2023-01-22T21:52:26.924Z,19.18
2023-01-22T21:54:29.596Z,20.38
2023-01-22T21:56:30.920Z,21.07
2023-01-22T21:58:32.244Z,21.37
2023-01-22T22:00:33.540Z,21.50
2023-01-22T22:02:34.944Z,21.54
2023-01-22T22:04:36.519Z,21.60
2023-01-22T22:06:37.868Z,21.61
2023-01-22T22:08:40.127Z,21.66
2023-01-22T22:10:41.487Z,21.66
2023-01-22T22:12:42.844Z,21.67
2023-01-22T22:14:44.163Z,21.68
2023-01-22T22:16:45.500Z,21.67
2023-01-22T22:18:46.867Z,21.64
2023-01-22T22:20:48.246Z,21.64
2023-01-22T22:22:49.582Z,21.60
2023-01-22T22:24:51.028Z,21.57
2023-01-22T22:26:52.329Z,21.55
2023-01-22T22:28:56.359Z,21.49
2023-01-22T22:30:57.728Z,21.44
2023-01-22T22:32:59.047Z,21.40
2023-01-22T22:35:00.378Z,21.36
2023-01-22T22:37:01.677Z,21.33
2023-01-22T22:39:03.189Z,21.33
2023-01-22T22:41:04.485Z,21.26
2023-01-22T22:43:05.793Z,21.20
2023-01-22T22:45:07.122Z,21.14
2023-01-22T22:47:08.411Z,21.10
2023-01-22T22:49:11.636Z,21.05
2023-01-22T22:51:13.127Z,21.00
2023-01-22T22:53:14.514Z,20.95
2023-01-22T22:55:15.822Z,20.92
2023-01-22T22:57:17.301Z,20.92
2023-01-22T22:59:21.668Z,20.88
2023-01-22T23:01:22.987Z,20.86
2023-01-22T23:03:24.898Z,20.84
2023-01-22T23:05:26.256Z,20.83
2023-01-22T23:07:27.536Z,20.82
2023-01-22T23:09:28.884Z,20.80
2023-01-22T23:11:30.233Z,20.80
2023-01-22T23:13:31.570Z,20.78
2023-01-22T23:15:32.871Z,20.80
2023-01-22T23:17:34.241Z,20.83
2023-01-22T23:19:35.575Z,20.87
2023-01-22T23:21:40.980Z,20.90
2023-01-22T23:23:42.341Z,20.96
2023-01-22T23:25:43.686Z,21.02
2023-01-22T23:27:45.073Z,21.06
2023-01-22T23:29:46.412Z,21.12
2023-01-22T23:31:47.854Z,21.20
2023-01-22T23:33:49.270Z,21.25
2023-01-22T23:35:52.315Z,21.30
2023-01-22T23:37:53.818Z,21.32
2023-01-22T23:39:55.630Z,21.31
2023-01-22T23:41:57.023Z,21.36
2023-01-22T23:43:58.379Z,21.36
2023-01-22T23:45:59.909Z,21.37
2023-01-22T23:48:02.189Z,21.35
2023-01-22T23:50:03.531Z,21.33
2023-01-22T23:52:04.869Z,21.27
2023-01-22T23:54:06.162Z,21.24
2023-01-22T23:56:07.565Z,21.19
2023-01-22T23:58:08.859Z,21.18
